EDT,Max TemperatureF,Mean TemperatureF,Min TemperatureF,Max Dew PointF,MeanDew PointF,Min DewpointF,Max Humidity, Mean Humidity, Min Humidity, Max Sea Level PressureIn, Mean Sea Level PressureIn, Min Sea Level PressureIn, Max VisibilityMiles, Mean VisibilityMiles, Min VisibilityMiles, Max Wind SpeedMPH, Mean Wind SpeedMPH, Max Gust SpeedMPH,PrecipitationIn, CloudCover, Events, WindDirDegrees
2011-10-1,55,47,37,38,36,35,89,71,49,30.23,30.14,30.01,10,10,10,18,12,28,0.02,5,Rain,348
2011-10-2,63,50,37,41,35,28,89,64,28,30.22,30.16,30.08,10,10,10,17,8,25,0.00,1,,330
2011-10-3,70,57,44,45,40,36,82,59,30,30.21,30.14,30.10,10,10,10,14,5,22,0.00,2,,334
2011-10-4,73,58,42,51,45,39,93,74,34,30.32,30.26,30.22,10,10,9,5,1,,0.00,0,,330
2011-10-5,79,62,45,52,47,42,93,66,31,30.32,30.27,30.22,10,10,5,5,1,,0.00,0,,228
2011-10-6,80,62,46,54,48,43,93,77,35,30.34,30.30,30.27,10,6,0,5,0,,0.00,0,Fog,114
2011-10-7,80,64,48,55,50,46,94,81,40,30.41,30.36,30.31,10,4,0,7,1,,0.00,0,Fog,128
2011-10-8,81,64,48,56,50,46,94,80,35,30.42,30.38,30.32,10,5,0,7,1,,0.00,0,Fog,183
2011-10-9,80,64,48,56,50,46,94,73,35,30.43,30.37,30.30,10,7,1,7,1,,0.00,0,,114
2011-10-10,79,65,51,54,51,47,89,68,36,30.29,30.22,30.13,10,10,9,8,2,,0.00,0,,116
2011-10-11,79,62,46,54,48,45,94,80,32,30.12,30.09,29.99,10,5,0,8,1,,0.00,0,Fog,112
2011-10-12,66,58,50,55,51,48,93,80,64,29.97,29.87,29.75,10,8,4,8,2,,0.00,2,,107
2011-10-13,66,58,50,59,55,48,97,85,73,29.74,29.56,29.42,10,10,7,9,3,,0.01,8,Rain,168
2011-10-14,60,56,50,55,47,35,94,72,39,29.63,29.50,29.42,10,9,2,16,7,29,0.09,7,Rain,261
2011-10-15,62,54,48,43,36,29,80,56,30,29.88,29.74,29.62,10,10,10,20,10,33,0.00,3,,248
2011-10-16,57,50,46,49,43,36,83,73,59,29.91,29.81,29.73,10,10,8,10,5,,0.08,5,Rain,233
2011-10-17,63,50,39,38,31,24,79,50,23,29.86,29.83,29.78,10,10,10,16,7,25,0.00,1,,236
2011-10-18,51,48,44,45,39,33,93,73,50,29.85,29.82,29.78,10,9,2,9,4,,0.09,5,Rain,248
2011-10-19,50,48,46,47,45,42,93,87,83,29.74,29.48,29.19,10,6,2,18,14,29,1.82,8,Rain,15
2011-10-20,48,45,44,45,42,37,93,87,76,29.79,29.31,29.11,10,7,2,18,12,25,0.58,8,Rain,299
2011-10-21,50,42,37,41,39,34,93,82,69,30.12,30.04,29.82,10,7,1,7,3,,0.00,6,,260
2011-10-22,59,44,30,38,32,28,100,81,41,30.14,30.11,30.08,10,5,0,7,1,,0.00,2,Fog,235
2011-10-23,64,50,37,46,39,33,89,68,42,30.06,30.01,29.94,10,10,10,14,3,18,0.00,2,,210
2011-10-24,62,55,42,50,44,34,94,73,35,30.16,29.99,29.90,10,9,2,20,7,34,0.35,4,Rain-Thunderstorm,259
2011-10-25,69,54,39,42,38,34,79,57,35,30.19,30.05,29.83,10,10,10,22,5,29,0.00,2,Rain,197
2011-10-26,64,56,48,54,49,44,93,80,63,29.87,29.82,29.76,10,9,4,12,6,,0.28,7,Rain-Thunderstorm,355
2011-10-27,48,42,34,45,38,31,93,81,63,30.16,29.96,29.86,10,10,8,14,8,,0.10,6,Rain,2
2011-10-28,53,41,30,34,30,27,93,79,41,30.24,30.17,30.11,10,7,1,5,0,,0.02,1,,55
2011-10-29,53,43,34,38,33,30,92,75,49,30.15,30.08,30.02,10,10,6,15,1,,0.00,4,Rain,252
2011-10-30,54,40,28,35,29,24,93,74,43,30.26,30.17,30.11,10,6,0,12,2,18,0.00,4,Fog,174
2011-10-31,53,44,35,43,35,30,89,68,46,30.20,30.08,30.03,10,9,4,10,6,,0.07,6,Rain,180